createdAt,value
2022-07-31T00:00:12.582Z,9.73
2022-07-31T00:02:39.077Z,11.40
2022-07-31T00:05:05.601Z,10.80
2022-07-31T00:07:32.018Z,11.30
2022-07-31T00:09:58.417Z,9.93
2022-07-31T00:12:24.818Z,9.73
2022-07-31T00:14:51.247Z,10.13
2022-07-31T00:17:17.699Z,9.37
2022-07-31T00:19:44.119Z,8.43
2022-07-31T00:22:11.044Z,8.97
2022-07-31T00:24:37.452Z,11.87
2022-07-31T00:27:04.907Z,10.20
2022-07-31T00:29:31.802Z,9.03
2022-07-31T00:31:58.215Z,9.43
2022-07-31T00:34:24.615Z,9.03
2022-07-31T00:36:51.074Z,7.87
2022-07-31T00:39:17.463Z,8.73
2022-07-31T00:41:44.483Z,10.33
2022-07-31T00:44:12.381Z,8.87
2022-07-31T00:46:40.152Z,9.93
2022-07-31T00:49:10.463Z,10.93
2022-07-31T00:51:38.012Z,8.53
2022-07-31T00:54:04.703Z,9.90
2022-07-31T00:56:31.083Z,9.40
2022-07-31T00:58:57.490Z,9.47
2022-07-31T01:01:24.012Z,9.13
2022-07-31T01:03:50.855Z,8.43
2022-07-31T01:06:17.230Z,8.80
2022-07-31T01:08:43.617Z,8.43
2022-07-31T01:11:19.502Z,9.10
2022-07-31T01:13:51.094Z,10.07
2022-07-31T01:16:18.414Z,10.00
2022-07-31T01:18:45.120Z,10.77
2022-07-31T01:21:13.611Z,10.03
2022-07-31T01:23:55.510Z,9.90
2022-07-31T01:26:31.992Z,10.17
2022-07-31T01:29:13.606Z,9.50
2022-07-31T01:31:42.690Z,10.03
2022-07-31T01:34:14.663Z,10.27
2022-07-31T01:36:44.551Z,9.60
2022-07-31T01:39:11.606Z,8.47
2022-07-31T01:41:40.591Z,8.53
2022-07-31T01:44:07.910Z,8.00
2022-07-31T01:46:41.898Z,8.53
2022-07-31T01:49:09.942Z,10.00
2022-07-31T01:51:39.133Z,10.07
2022-07-31T01:54:05.874Z,11.07
2022-07-31T01:56:33.007Z,9.50
2022-07-31T01:59:00.531Z,8.53
2022-07-31T02:01:28.682Z,9.77
2022-07-31T02:03:56.887Z,7.90
2022-07-31T02:06:27.174Z,9.30
2022-07-31T02:08:54.875Z,8.00
2022-07-31T02:11:21.472Z,7.97
2022-07-31T02:13:48.511Z,8.80
2022-07-31T02:16:16.427Z,9.80
2022-07-31T02:18:43.091Z,11.07
2022-07-31T02:21:09.683Z,11.97
2022-07-31T02:23:36.788Z,9.00
2022-07-31T02:26:05.154Z,8.27
2022-07-31T02:28:32.306Z,9.43
2022-07-31T02:30:58.962Z,9.47
2022-07-31T02:33:26.371Z,11.43
2022-07-31T02:35:55.443Z,11.43
2022-07-31T02:38:23.970Z,9.87
2022-07-31T02:40:51.058Z,11.47
2022-07-31T02:43:17.940Z,12.83
2022-07-31T02:45:44.502Z,10.63
2022-07-31T02:48:10.875Z,9.57
2022-07-31T02:50:38.058Z,10.90
2022-07-31T02:53:04.682Z,11.27
2022-07-31T02:55:31.233Z,9.50
2022-07-31T02:57:57.741Z,8.73
2022-07-31T03:00:27.020Z,11.07
2022-07-31T03:02:54.886Z,9.90
2022-07-31T03:05:21.870Z,10.17
2022-07-31T03:07:48.676Z,9.80
2022-07-31T03:10:15.370Z,9.93
2022-07-31T03:12:46.341Z,10.40
2022-07-31T03:15:14.260Z,9.40
2022-07-31T03:17:41.890Z,10.10
2022-07-31T03:20:08.915Z,9.17
2022-07-31T03:22:35.773Z,9.23
2022-07-31T03:25:03.391Z,10.20
2022-07-31T03:27:30.034Z,9.90
2022-07-31T03:29:56.403Z,10.37
2022-07-31T03:32:22.827Z,10.10
2022-07-31T03:34:49.231Z,11.63
2022-07-31T03:37:15.624Z,10.50
2022-07-31T03:39:42.001Z,10.60
2022-07-31T03:42:13.002Z,10.97
2022-07-31T03:44:45.895Z,9.73
2022-07-31T03:47:12.467Z,11.03
2022-07-31T03:49:39.652Z,12.37
2022-07-31T03:52:11.735Z,11.20
2022-07-31T03:54:38.755Z,11.97
2022-07-31T03:57:05.570Z,11.10
2022-07-31T03:59:37.200Z,11.10
2022-07-31T04:02:09.734Z,11.20
2022-07-31T04:04:37.728Z,12.77
2022-07-31T04:07:04.851Z,12.47
2022-07-31T04:09:31.474Z,9.60
2022-07-31T04:11:57.914Z,10.53
2022-07-31T04:14:24.379Z,11.77
2022-07-31T04:16:50.800Z,10.00
2022-07-31T04:19:17.203Z,10.60
2022-07-31T04:21:43.593Z,11.23
2022-07-31T04:24:11.617Z,10.37
2022-07-31T04:26:38.007Z,9.37
2022-07-31T04:29:04.678Z,10.40
2022-07-31T04:31:31.064Z,9.57
2022-07-31T04:33:57.425Z,9.10
2022-07-31T04:36:30.589Z,9.57
2022-07-31T04:38:57.196Z,10.63
2022-07-31T04:41:23.644Z,10.40
2022-07-31T04:43:50.037Z,10.20
2022-07-31T04:46:17.469Z,10.23
2022-07-31T04:48:44.999Z,11.50
2022-07-31T04:51:29.653Z,9.23
2022-07-31T04:53:56.032Z,11.70
2022-07-31T04:56:36.003Z,10.00
2022-07-31T04:59:04.753Z,11.53
2022-07-31T05:01:31.275Z,10.23
2022-07-31T05:03:57.858Z,10.90
2022-07-31T05:06:32.255Z,10.50
2022-07-31T05:08:58.633Z,10.97
2022-07-31T05:11:25.141Z,10.17
2022-07-31T05:13:52.301Z,10.47
2022-07-31T05:16:19.637Z,8.97
2022-07-31T05:18:46.330Z,10.60
2022-07-31T05:21:13.502Z,9.47
2022-07-31T05:23:40.167Z,10.67
2022-07-31T05:26:06.639Z,11.47
2022-07-31T05:28:33.403Z,10.00
2022-07-31T05:30:59.983Z,11.60
2022-07-31T05:33:26.437Z,10.00
2022-07-31T05:35:52.842Z,10.40
2022-07-31T05:38:19.213Z,10.70
2022-07-31T05:40:45.662Z,9.43
2022-07-31T05:43:12.078Z,10.97
2022-07-31T05:45:38.694Z,10.97
2022-07-31T05:48:05.499Z,9.90
2022-07-31T05:50:31.938Z,11.97
2022-07-31T05:52:58.316Z,12.03
2022-07-31T05:55:24.713Z,13.00
2022-07-31T05:57:51.614Z,12.00
2022-07-31T06:00:18.956Z,9.90
2022-07-31T06:02:45.603Z,10.20
2022-07-31T06:05:12.026Z,11.67
2022-07-31T06:07:38.520Z,11.03
2022-07-31T06:10:05.097Z,10.20
2022-07-31T06:12:31.546Z,11.47
2022-07-31T06:14:58.114Z,9.57
2022-07-31T06:17:24.586Z,10.53
2022-07-31T06:20:07.341Z,8.77
2022-07-31T06:22:33.794Z,7.97
2022-07-31T06:25:00.187Z,7.53
2022-07-31T06:27:33.872Z,6.03
2022-07-31T06:30:01.621Z,5.87
2022-07-31T06:32:28.001Z,5.97
2022-07-31T06:34:54.405Z,5.30
2022-07-31T06:37:21.019Z,5.83
2022-07-31T06:39:55.805Z,6.83
2022-07-31T06:42:23.727Z,5.73
2022-07-31T06:44:50.522Z,4.70
2022-07-31T06:47:17.555Z,4.80
2022-07-31T06:49:44.077Z,4.87
2022-07-31T06:52:10.625Z,4.33
2022-07-31T06:54:37.206Z,14.13
2022-07-31T06:57:03.907Z,4.77
2022-07-31T06:59:40.088Z,5.40
2022-07-31T07:02:07.723Z,4.00
2022-07-31T07:05:05.346Z,4.60
2022-07-31T07:07:20.906Z,4.20
2022-07-31T07:09:47.270Z,3.57
2022-07-31T07:12:16.628Z,3.50
2022-07-31T07:14:43.525Z,4.03
2022-07-31T07:17:09.968Z,4.03
2022-07-31T07:19:39.337Z,2.50
2022-07-31T07:22:06.114Z,4.10
2022-07-31T07:24:32.931Z,4.80
2022-07-31T07:26:59.313Z,5.27
2022-07-31T07:29:25.750Z,5.00
2022-07-31T07:31:52.179Z,6.03
2022-07-31T07:34:18.561Z,11.43
2022-07-31T07:36:45.007Z,6.53
2022-07-31T07:39:11.529Z,7.57
2022-07-31T07:41:38.732Z,6.77
2022-07-31T07:44:06.500Z,6.57
2022-07-31T07:46:32.900Z,6.50
2022-07-31T07:48:59.427Z,6.30
2022-07-31T07:51:25.913Z,5.83
2022-07-31T07:53:52.411Z,5.13
2022-07-31T07:56:18.885Z,4.73
2022-07-31T07:58:45.394Z,4.10
2022-07-31T08:01:12.225Z,4.03
2022-07-31T08:03:49.763Z,4.22
2022-07-31T08:06:18.097Z,3.80
2022-07-31T08:08:44.549Z,3.70
2022-07-31T08:11:10.993Z,3.50
2022-07-31T08:13:49.332Z,3.15
2022-07-31T08:16:16.908Z,3.57
2022-07-31T08:18:43.384Z,5.37
2022-07-31T08:21:09.820Z,3.53
2022-07-31T08:23:36.247Z,4.07
2022-07-31T08:26:04.569Z,3.90
2022-07-31T08:28:33.468Z,3.97
2022-07-31T08:31:00.197Z,3.57
2022-07-31T08:33:26.715Z,3.45
2022-07-31T08:35:53.159Z,3.72
2022-07-31T08:38:19.818Z,4.00
2022-07-31T08:40:46.867Z,3.90
2022-07-31T08:46:02.749Z,3.60
2022-07-31T08:48:30.939Z,3.67
2022-07-31T08:50:57.480Z,3.70
2022-07-31T08:53:25.089Z,12.90
2022-07-31T08:55:56.872Z,5.22
2022-07-31T08:58:24.760Z,3.83
2022-07-31T09:00:51.521Z,3.88
2022-07-31T09:03:18.095Z,3.60
2022-07-31T09:05:44.468Z,3.40
2022-07-31T09:08:12.393Z,2.95
2022-07-31T09:10:46.299Z,3.10
2022-07-31T09:13:17.969Z,3.08
2022-07-31T09:15:44.561Z,4.10
2022-07-31T09:18:18.809Z,3.20
2022-07-31T09:20:56.216Z,3.03
2022-07-31T09:23:23.355Z,2.55
2022-07-31T09:25:58.698Z,3.65
2022-07-31T09:28:36.531Z,3.17
2022-07-31T09:31:03.342Z,2.80
2022-07-31T09:33:30.470Z,2.58
2022-07-31T09:35:57.628Z,2.95
2022-07-31T09:38:29.967Z,2.55
2022-07-31T09:40:57.810Z,2.13
2022-07-31T09:43:25.735Z,2.53
2022-07-31T09:45:59.698Z,3.00
2022-07-31T09:48:28.902Z,1.98
2022-07-31T09:51:05.827Z,2.10
2022-07-31T09:53:43.746Z,2.60
2022-07-31T09:56:12.684Z,14.82
2022-07-31T09:58:40.648Z,9.00
2022-07-31T10:07:42.986Z,2.38
2022-07-31T10:10:10.140Z,2.28
2022-07-31T10:12:40.833Z,2.65
2022-07-31T10:15:15.146Z,2.17
2022-07-31T10:17:49.547Z,2.70
2022-07-31T10:20:18.258Z,2.53
2022-07-31T10:22:46.987Z,2.08
2022-07-31T10:25:19.451Z,2.30
2022-07-31T10:27:46.164Z,2.08
2022-07-31T10:30:16.121Z,2.10
2022-07-31T10:32:45.823Z,2.30
2022-07-31T10:35:12.712Z,2.80
2022-07-31T10:37:39.437Z,2.28
2022-07-31T10:40:29.515Z,2.25
2022-07-31T10:43:01.939Z,2.20
2022-07-31T10:45:32.302Z,2.00
2022-07-31T10:47:59.743Z,2.10
2022-07-31T10:50:27.350Z,2.40
2022-07-31T10:52:58.642Z,1.80
2022-07-31T10:55:27.238Z,1.75
2022-07-31T10:57:56.680Z,2.10
2022-07-31T11:00:28.259Z,1.95
2022-07-31T11:02:56.406Z,2.22
2022-07-31T11:05:28.140Z,1.73
2022-07-31T11:08:01.562Z,2.30
2022-07-31T11:10:28.003Z,1.65
2022-07-31T11:13:01.833Z,2.83
2022-07-31T11:15:28.574Z,1.85
2022-07-31T11:18:22.149Z,1.35
2022-07-31T11:20:46.780Z,1.73
2022-07-31T11:23:17.652Z,1.70
2022-07-31T11:25:45.634Z,1.30
2022-07-31T11:28:18.715Z,1.73
2022-07-31T11:30:52.859Z,1.45
2022-07-31T11:33:29.142Z,1.85
2022-07-31T11:36:04.891Z,1.60
2022-07-31T11:38:31.364Z,2.13
2022-07-31T11:40:57.928Z,1.95
2022-07-31T11:43:26.244Z,1.75
2022-07-31T11:45:53.671Z,2.22
2022-07-31T11:48:21.757Z,1.55
2022-07-31T11:50:49.101Z,1.73
2022-07-31T11:53:15.919Z,1.77
2022-07-31T11:55:46.725Z,1.30
2022-07-31T11:58:13.774Z,1.65
2022-07-31T12:00:45.840Z,1.50
2022-07-31T12:03:12.435Z,1.70
2022-07-31T12:05:46.501Z,1.50
2022-07-31T12:08:13.466Z,1.60
2022-07-31T12:10:40.106Z,1.42
2022-07-31T12:13:15.382Z,1.67
2022-07-31T12:15:53.151Z,1.55
2022-07-31T12:18:19.567Z,1.73
2022-07-31T12:21:12.220Z,1.73
2022-07-31T12:23:41.378Z,1.65
2022-07-31T12:26:10.547Z,1.33
2022-07-31T12:28:37.019Z,1.80
2022-07-31T12:31:03.608Z,1.23
2022-07-31T12:33:39.498Z,8.27
2022-07-31T12:36:12.906Z,1.92
2022-07-31T12:38:45.290Z,1.92
2022-07-31T12:41:14.977Z,1.50
2022-07-31T12:43:50.870Z,1.58
2022-07-31T12:46:18.521Z,1.88
2022-07-31T12:48:46.279Z,1.58
2022-07-31T12:51:13.251Z,1.30
2022-07-31T12:53:39.748Z,1.38
2022-07-31T12:56:10.511Z,1.38
2022-07-31T12:58:36.878Z,1.67
2022-07-31T13:01:03.275Z,1.38
2022-07-31T13:03:45.459Z,1.80
2022-07-31T13:06:13.252Z,1.80
2022-07-31T13:08:39.704Z,2.00
2022-07-31T13:11:06.143Z,1.85
2022-07-31T13:13:32.557Z,1.80
2022-07-31T13:15:59.043Z,1.85
2022-07-31T13:18:25.475Z,1.77
2022-07-31T13:20:51.851Z,1.88
2022-07-31T13:23:18.267Z,2.10
2022-07-31T13:25:44.698Z,1.70
2022-07-31T13:28:11.169Z,1.83
2022-07-31T13:30:37.573Z,1.98
2022-07-31T13:33:04.062Z,2.10
2022-07-31T13:35:31.775Z,1.85
2022-07-31T13:37:58.236Z,1.73
2022-07-31T13:40:43.518Z,1.90
2022-07-31T13:43:09.904Z,1.88
2022-07-31T13:45:36.332Z,1.95
2022-07-31T13:48:06.878Z,1.30
2022-07-31T13:50:35.127Z,2.10
2022-07-31T13:53:01.684Z,1.98
2022-07-31T13:55:28.137Z,1.95
2022-07-31T13:57:57.085Z,1.67
2022-07-31T14:00:26.493Z,1.80
2022-07-31T14:02:52.904Z,1.90
2022-07-31T14:05:19.335Z,1.70
2022-07-31T14:07:51.593Z,1.63
2022-07-31T14:10:20.642Z,1.77
2022-07-31T14:12:47.376Z,2.10
2022-07-31T14:15:13.812Z,1.95
2022-07-31T14:17:40.344Z,2.00
2022-07-31T14:20:06.937Z,1.70
2022-07-31T14:22:33.349Z,1.88
2022-07-31T14:24:59.863Z,1.90
2022-07-31T14:27:26.249Z,1.90
2022-07-31T14:29:52.698Z,2.00
2022-07-31T14:32:19.740Z,2.10
2022-07-31T14:34:46.266Z,1.80
2022-07-31T14:37:12.682Z,1.80
2022-07-31T14:39:42.801Z,2.55
2022-07-31T14:42:09.869Z,2.20
2022-07-31T14:44:36.948Z,4.75
2022-07-31T14:47:03.824Z,2.20
2022-07-31T14:50:06.836Z,2.30
2022-07-31T14:52:17.615Z,2.28
2022-07-31T14:54:44.049Z,2.35
2022-07-31T14:57:10.837Z,2.60
2022-07-31T14:59:37.221Z,2.35
2022-07-31T15:02:03.602Z,2.42
2022-07-31T15:04:29.985Z,1.98
2022-07-31T15:07:13.022Z,2.70
2022-07-31T15:09:42.821Z,2.88
2022-07-31T15:12:09.389Z,2.53
2022-07-31T15:14:35.761Z,3.30
2022-07-31T15:17:02.335Z,3.83
2022-07-31T15:19:28.874Z,3.83
2022-07-31T15:22:10.141Z,4.60
2022-07-31T15:24:48.152Z,5.27
2022-07-31T15:27:15.866Z,5.80
2022-07-31T15:30:00.210Z,6.40
2022-07-31T15:32:29.534Z,12.57
2022-07-31T15:34:55.966Z,7.00
2022-07-31T15:37:22.370Z,7.63
2022-07-31T15:40:01.609Z,7.63
2022-07-31T15:42:30.319Z,8.67
2022-07-31T15:44:56.729Z,8.97
2022-07-31T15:47:23.162Z,7.90
2022-07-31T15:49:49.554Z,7.87
2022-07-31T15:52:19.284Z,8.10
2022-07-31T15:54:46.514Z,8.40
2022-07-31T15:57:13.533Z,8.67
2022-07-31T15:59:40.068Z,8.20
2022-07-31T16:02:07.219Z,7.70
2022-07-31T16:04:34.791Z,9.23
2022-07-31T16:08:27.062Z,9.60
2022-07-31T16:10:02.654Z,8.20
2022-07-31T16:12:34.782Z,8.63
2022-07-31T16:15:01.208Z,8.60
2022-07-31T16:17:40.843Z,8.60
2022-07-31T16:20:08.674Z,7.80
2022-07-31T16:22:38.831Z,8.73
2022-07-31T16:25:06.005Z,9.30
2022-07-31T16:27:32.469Z,9.43
2022-07-31T16:30:01.415Z,8.90
2022-07-31T16:32:28.911Z,9.27
2022-07-31T16:35:00.195Z,11.37
2022-07-31T16:37:51.164Z,9.47
2022-07-31T16:40:29.790Z,10.97
2022-07-31T16:43:02.012Z,9.73
2022-07-31T16:45:29.694Z,7.53
2022-07-31T16:47:56.352Z,8.30
2022-07-31T16:50:22.815Z,9.13
2022-07-31T16:52:52.598Z,8.60
2022-07-31T16:55:21.275Z,9.20
2022-07-31T16:58:11.086Z,8.60
2022-07-31T17:00:38.254Z,8.93
2022-07-31T17:03:04.847Z,9.90
2022-07-31T17:05:31.229Z,8.90
2022-07-31T17:07:57.623Z,8.20
2022-07-31T17:10:24.063Z,8.90
2022-07-31T17:12:52.592Z,9.60
2022-07-31T17:15:19.107Z,10.07
2022-07-31T17:17:45.576Z,10.47
2022-07-31T17:20:13.018Z,10.87
2022-07-31T17:22:41.448Z,11.50
2022-07-31T17:25:11.866Z,10.40
2022-07-31T17:27:38.305Z,11.00
2022-07-31T17:30:05.039Z,11.47
2022-07-31T17:32:32.455Z,12.00
2022-07-31T17:34:58.869Z,11.07
2022-07-31T17:37:25.351Z,11.30
2022-07-31T17:39:56.282Z,10.93
2022-07-31T17:42:24.550Z,12.07
2022-07-31T17:44:55.013Z,27.07
2022-07-31T17:47:22.543Z,18.77
2022-07-31T17:49:48.983Z,13.80
2022-07-31T17:52:15.479Z,14.53
2022-07-31T17:54:41.882Z,13.63
2022-07-31T17:57:08.302Z,13.97
2022-07-31T17:59:35.223Z,17.10
2022-07-31T18:02:03.660Z,17.87
2022-07-31T18:04:31.568Z,17.97
2022-07-31T18:06:58.691Z,17.87
2022-07-31T18:09:25.487Z,18.00
2022-07-31T18:11:52.806Z,16.83
2022-07-31T18:14:19.459Z,17.63
2022-07-31T18:16:46.603Z,17.60
2022-07-31T18:19:13.336Z,18.30
2022-07-31T18:21:39.870Z,18.23
2022-07-31T18:24:06.633Z,18.73
2022-07-31T18:26:35.233Z,18.40
2022-07-31T18:29:01.869Z,20.30
2022-07-31T18:31:34.906Z,18.93
2022-07-31T18:34:02.682Z,19.20
2022-07-31T18:36:29.153Z,19.37
2022-07-31T18:38:55.547Z,18.30
2022-07-31T18:41:21.970Z,18.63
2022-07-31T18:43:48.413Z,19.00
2022-07-31T18:46:15.196Z,20.43
2022-07-31T18:48:41.594Z,17.33
2022-07-31T18:51:08.406Z,17.93
2022-07-31T18:53:34.899Z,18.47
2022-07-31T18:56:01.347Z,20.23
2022-07-31T18:58:27.773Z,18.77
2022-07-31T19:00:55.666Z,20.97
2022-07-31T19:03:23.589Z,19.47
2022-07-31T19:05:52.304Z,21.80
2022-07-31T19:08:19.350Z,21.63
2022-07-31T19:10:45.793Z,22.30
2022-07-31T19:13:18.823Z,20.87
2022-07-31T19:15:46.878Z,24.57
2022-07-31T19:18:14.173Z,23.77
2022-07-31T19:20:56.165Z,19.30
2022-07-31T19:23:27.004Z,13.20
2022-07-31T19:26:02.677Z,12.80
2022-07-31T19:28:30.994Z,13.63
2022-07-31T19:30:57.565Z,13.63
2022-07-31T19:33:24.024Z,13.10
2022-07-31T19:35:54.022Z,13.07
2022-07-31T19:38:25.186Z,13.77
2022-07-31T19:40:51.730Z,12.97
2022-07-31T19:43:20.254Z,14.27
2022-07-31T19:46:09.537Z,15.20
2022-07-31T19:48:33.573Z,13.73
2022-07-31T19:50:59.970Z,13.67
2022-07-31T19:53:26.346Z,13.87
2022-07-31T19:55:52.720Z,13.27
2022-07-31T19:58:19.956Z,12.97
2022-07-31T20:00:46.861Z,13.60
2022-07-31T20:03:13.386Z,14.53
2022-07-31T20:05:39.911Z,13.03
2022-07-31T20:08:06.337Z,13.20
2022-07-31T20:10:32.734Z,17.50
2022-07-31T20:12:59.117Z,10.67
2022-07-31T20:15:25.515Z,9.13
2022-07-31T20:17:52.481Z,9.87
2022-07-31T20:20:18.899Z,9.90
2022-07-31T20:22:45.335Z,10.17
2022-07-31T20:25:12.165Z,9.00
2022-07-31T20:27:47.147Z,8.00
2022-07-31T20:30:13.581Z,8.03
2022-07-31T20:32:48.395Z,8.00
2022-07-31T20:35:46.921Z,7.70
2022-07-31T20:38:02.343Z,7.83
2022-07-31T20:40:28.973Z,7.77
2022-07-31T20:42:55.392Z,7.33
2022-07-31T20:45:22.350Z,7.10
2022-07-31T20:47:48.767Z,7.50
2022-07-31T20:50:15.158Z,6.57
2022-07-31T20:52:46.900Z,7.70
2022-07-31T20:55:14.990Z,7.37
2022-07-31T20:57:41.489Z,7.50
2022-07-31T21:00:08.791Z,7.97
2022-07-31T21:02:35.269Z,8.33
2022-07-31T21:05:02.332Z,8.87
2022-07-31T21:07:30.249Z,8.37
2022-07-31T21:09:56.934Z,9.13
2022-07-31T21:12:26.990Z,9.83
2022-07-31T21:14:55.943Z,10.07
2022-07-31T21:17:22.372Z,9.80
2022-07-31T21:19:48.770Z,9.97
2022-07-31T21:22:15.191Z,9.87
2022-07-31T21:24:41.752Z,9.10
2022-07-31T21:27:09.567Z,10.37
2022-07-31T21:29:36.091Z,10.03
2022-07-31T21:32:02.921Z,9.13
2022-07-31T21:34:29.666Z,9.47
2022-07-31T21:36:56.214Z,9.33
2022-07-31T21:39:26.791Z,10.37
2022-07-31T21:41:53.436Z,10.37
2022-07-31T21:44:19.966Z,10.37
2022-07-31T21:46:51.893Z,10.80
2022-07-31T21:49:20.332Z,10.43
2022-07-31T21:51:46.946Z,10.97
2022-07-31T21:54:15.515Z,10.80
2022-07-31T21:56:42.141Z,10.87
2022-07-31T21:59:08.496Z,10.70
2022-07-31T22:01:35.287Z,11.67
2022-07-31T22:04:01.691Z,11.87
2022-07-31T22:06:46.705Z,12.23
2022-07-31T22:09:13.094Z,10.87
2022-07-31T22:11:43.156Z,11.80
2022-07-31T22:14:28.320Z,12.43
2022-07-31T22:16:54.750Z,12.70
2022-07-31T22:19:21.227Z,13.17
2022-07-31T22:21:47.761Z,13.67
2022-07-31T22:24:14.335Z,15.13
2022-07-31T22:27:00.766Z,16.33
2022-07-31T22:29:27.560Z,15.63
2022-07-31T22:31:54.160Z,16.33
2022-07-31T22:34:37.566Z,16.07
2022-07-31T22:37:05.122Z,15.47
2022-07-31T22:39:32.042Z,15.13
2022-07-31T22:42:00.475Z,16.20
2022-07-31T22:44:27.237Z,15.20
2022-07-31T22:46:54.360Z,15.30
2022-07-31T22:49:21.067Z,15.63
2022-07-31T22:51:47.495Z,15.50
2022-07-31T22:54:13.924Z,14.53
2022-07-31T22:56:40.358Z,15.03
2022-07-31T22:59:08.839Z,14.90
2022-07-31T23:01:35.235Z,14.47
2022-07-31T23:04:01.593Z,15.53
2022-07-31T23:06:31.450Z,13.87
2022-07-31T23:08:59.158Z,14.87
2022-07-31T23:11:25.649Z,13.87
2022-07-31T23:13:52.098Z,16.17
2022-07-31T23:16:18.490Z,13.93
2022-07-31T23:18:44.889Z,14.47
2022-07-31T23:21:11.399Z,15.87
2022-07-31T23:23:37.842Z,13.77
2022-07-31T23:26:04.279Z,14.53
2022-07-31T23:28:30.654Z,13.47
2022-07-31T23:30:57.076Z,14.23
2022-07-31T23:33:23.461Z,14.00
2022-07-31T23:35:49.847Z,13.97
2022-07-31T23:38:16.222Z,13.50
2022-07-31T23:40:42.614Z,14.73
2022-07-31T23:43:08.978Z,14.67
2022-07-31T23:45:36.170Z,13.87
2022-07-31T23:48:03.594Z,13.93
2022-07-31T23:50:31.786Z,14.23
2022-07-31T23:52:58.209Z,15.03
2022-07-31T23:55:24.591Z,14.23
2022-07-31T23:57:50.963Z,12.53
